Verhnij Ufalej, Russia
Current Conditions -  °F | °C
As of 10:30 PM on Friday 21 Nov 2014 (Local Time) from USSS Reporting Station
Overcast Overcast  
Wind Chill: 25°   Ceiling: 1500
Heat Index: 34°   Visibility: 6mi
Dew Point: 32°   Wind: 11mph
Humidity: 93%   Direction: 280°W
Pressure: 30.18"   Gusts: NA
Location:  56.06°N, 60.23°E
Report Text: USSS 211630Z 28005MPS 9999 BKN015 OVC067 01/M00 Q1022 7629//35NOSIG RMK QFE746
Loading
Personal Weather Stations






























Interactive Weather Map New forecast layout! Learn more

10-Day Weather Forecast

Advertisements
Track Severe Weather on mobile